Terminal Aerodrome Forecast
Issued by NWS

Home | Current Version | Previous Version | Text Only | Print | Product List | Glossary On
Versions: 1 2 3 4 5 6 7 8 9 10 11 12 13 14 15 16 17 18 19 20 21 22 23
000
FTAK31 PAJN 230222 AAA
TAFASI
TAF AMD
PASI 230222Z 2302/2324 19011KT P6SM VCSH BKN050
     FM230400 16006KT P6SM VCSH SCT020 OVC040
     FM230800 11006KT 6SM -SHRA BR OVC035
     FM231200 11006KT 4SM -RA BR BKN015 OVC025
     FM231600 10008KT P6SM OVC050=

USA.gov is the U.S. government's official web portal to all federal, state and local government web resources and services.